KFNT/FNT METAR and TAF weather

Enter ICAO airport designator
Station Type Date Time Source
KFNT METAR 2022/08/16 19:32 UTC NOAA

KFNT 161932Z 35008KT 10SM FEW050 SCT060 BKN100 23/17 A3010 RMK AO2 LTG DSNT N RAB1856E28 P0000 T02330167


Station Type Date Time Source
KFNT Decoded METAR 2022/08/16 19:32 UTC NOAA

FLINT BISHOP INTERNATIONAL AIRPORT, MI, United States (KFNT) 42-58N 83-45W 233M
Aug 16, 2022 - 03:32 PM EDT / 2022.08.16 1932 UTC
Wind: from the N (350 degrees) at 9 MPH (8 KT):0
Visibility: 10 mile(s):0
Sky conditions: mostly cloudy
Weather: Lightning observed
Precipitation last hour: A trace
Temperature: 73.9 F (23.3 C)
Dew Point: 62.1 F (16.7 C)
Relative Humidity: 66%
Pressure (altimeter): 30.1 in. Hg (1019 hPa)
ob: KFNT 161932Z 35008KT 10SM FEW050 SCT060 BKN100 23/17 A3010 RMK AO2 LTG DSNT N RAB1856E28 P0000 T02330167
cycle: 19

Station Type Date Time Source
KFNT TAF 2022/08/16 18:22 UTC NOAA

TAF KFNT 161720Z 1618/1718 07010G15KT P6SM SCT050
FM170000 05006KT P6SM FEW100 SCT250
FM170600 02004KT P6SM FEW100
FM171600 02008KT P6SM SCT050 SCT100

Example: see airport list